Arch Cape, Oregon
Current Conditions -  °F | °C
As of 11:15 AM on Thursday 27 Nov 2014 (Local Time) from KAST Reporting Station
Light Rain Light Rain  
Wind Chill: 13°   Ceiling: 1000
Heat Index: 13°   Visibility: 7mi
Dew Point: 12°   Wind: 17mph
Humidity: 90%   Direction: 200°SSW
Pressure: 29.88"   Gusts: 31mph
Location:  45.8°N, 123.96°W
Report Text: KAST 271915Z AUTO 20015G27KT 7SM -RA BKN010 BKN013 OVC019 13/12 A2988 RMK AO2 PK WND 19027/1906 P0001 T01330117
Loading
Personal Weather Stations






























Interactive Weather Map New forecast layout! Learn more

10-Day Weather Forecast

Advertisements
Track Severe Weather on mobile